KLNR/LNR METAR and TAF weather

Enter ICAO airport designator
Station Type Date Time Source
KLNR METAR 2018/12/18 18:56 UTC NOAA

KLNR 181856Z AUTO 20010KT 10SM CLR 08/M03 A3002 RMK AO2 SLP170 T00781033


Station Type Date Time Source
KLNR Decoded METAR 2018/12/18 18:56 UTC NOAA

LONE ROCK TRI-COUNTY REG, WI, United States (KLNR) 43-13N 090-11W 217M
Dec 18, 2018 - 01:56 PM EST / 2018.12.18 1856 UTC
Wind: from the SSW (200 degrees) at 12 MPH (10 KT):0
Visibility: 10 mile(s):0
Sky conditions: clear
Temperature: 46.0 F (7.8 C)
Dew Point: 26.1 F (-3.3 C)
Relative Humidity: 45%
Pressure (altimeter): 30.02 in. Hg (1016 hPa)
ob: KLNR 181856Z AUTO 20010KT 10SM CLR 08/M03 A3002 RMK AO2 SLP170 T00781033
cycle: 19

Station Type Date Time Source
KLNR TAF UTC NOAA

Error!


Example: see airport list